createdAt,value
2019-05-03T00:02:26.861Z,69.76
2019-05-03T00:05:19.385Z,69.99
2019-05-03T00:07:52.655Z,69.78
2019-05-03T00:10:24.138Z,69.89
2019-05-03T00:12:55.317Z,69.84
2019-05-03T00:15:45.416Z,69.40
2019-05-03T00:18:16.763Z,69.42
2019-05-03T00:20:47.777Z,69.51
2019-05-03T00:23:18.792Z,69.50
2019-05-03T00:25:52.275Z,69.56
2019-05-03T00:28:24.027Z,69.94
2019-05-03T00:30:55.138Z,69.93
2019-05-03T00:33:26.557Z,69.59
2019-05-03T00:36:07.378Z,69.47
2019-05-03T00:38:38.440Z,69.83
2019-05-03T00:41:09.752Z,69.85
2019-05-03T00:43:42.406Z,69.69
2019-05-03T00:46:13.581Z,69.72
2019-05-03T00:48:44.613Z,69.90
2019-05-03T00:51:15.610Z,69.66
2019-05-03T00:53:46.700Z,69.71
2019-05-03T00:56:18.150Z,70.00
2019-05-03T00:58:55.807Z,70.02
2019-05-03T01:01:27.081Z,69.65
2019-05-03T01:03:59.145Z,70.10
2019-05-03T01:06:31.801Z,69.88
2019-05-03T01:09:04.466Z,69.47
2019-05-03T01:11:36.185Z,69.52
2019-05-03T01:14:07.457Z,70.02
2019-05-03T01:16:38.873Z,70.00
2019-05-03T01:19:11.966Z,70.13
2019-05-03T01:21:42.893Z,69.96
2019-05-03T01:24:13.985Z,69.67
2019-05-03T01:26:45.304Z,69.99
2019-05-03T01:29:16.313Z,70.13
2019-05-03T01:31:47.436Z,69.98
2019-05-03T01:34:18.442Z,69.90
2019-05-03T01:36:51.901Z,70.07
2019-05-03T01:39:23.680Z,70.35
2019-05-03T01:41:54.920Z,69.85
2019-05-03T01:44:26.257Z,70.12
2019-05-03T01:46:59.264Z,70.18
2019-05-03T01:49:35.777Z,69.79
2019-05-03T01:52:34.953Z,70.14
2019-05-03T01:55:06.878Z,70.03
2019-05-03T01:57:37.890Z,70.43
2019-05-03T02:00:13.679Z,70.53
2019-05-03T02:02:55.648Z,70.60
2019-05-03T02:05:48.525Z,70.27
2019-05-03T02:08:22.035Z,70.34
2019-05-03T02:10:53.214Z,70.27
2019-05-03T02:13:24.411Z,70.05
2019-05-03T02:15:55.764Z,70.04
2019-05-03T02:18:26.775Z,69.88
2019-05-03T02:20:57.837Z,69.94
2019-05-03T02:23:28.834Z,70.12
2019-05-03T02:25:59.841Z,69.91
2019-05-03T02:28:32.553Z,69.86
2019-05-03T02:31:03.833Z,69.80
2019-05-03T02:33:36.029Z,70.71
2019-05-03T02:36:07.117Z,70.57
2019-05-03T02:38:38.622Z,69.93
2019-05-03T02:41:09.738Z,69.71
2019-05-03T02:43:45.579Z,69.69
2019-05-03T02:46:41.655Z,69.87
2019-05-03T02:49:31.624Z,70.25
2019-05-03T02:52:02.620Z,70.10
2019-05-03T02:54:35.238Z,69.77
2019-05-03T02:57:06.546Z,70.17
2019-05-03T02:59:37.546Z,69.72
2019-05-03T03:02:08.959Z,69.41
2019-05-03T03:04:40.462Z,69.39
2019-05-03T03:07:11.925Z,69.81
2019-05-03T03:09:45.277Z,70.39
2019-05-03T03:12:18.247Z,70.20
2019-05-03T03:14:49.530Z,70.28
2019-05-03T03:17:25.480Z,70.55
2019-05-03T03:19:59.548Z,70.40
2019-05-03T03:22:36.095Z,70.39
2019-05-03T03:25:10.998Z,70.37
2019-05-03T03:27:45.326Z,70.35
2019-05-03T03:30:38.127Z,70.33
2019-05-03T03:33:17.584Z,70.18
2019-05-03T03:35:48.818Z,70.24
2019-05-03T03:38:21.450Z,70.54
2019-05-03T03:40:56.445Z,70.75
2019-05-03T03:43:27.839Z,70.50
2019-05-03T03:45:59.963Z,70.43
2019-05-03T03:48:35.328Z,70.31
2019-05-03T03:51:07.479Z,70.77
2019-05-03T03:53:40.066Z,70.47
2019-05-03T03:56:12.941Z,70.54
2019-05-03T03:58:46.398Z,70.02
2019-05-03T04:01:18.593Z,70.02
2019-05-03T04:03:49.694Z,69.81
2019-05-03T04:06:23.635Z,69.89
2019-05-03T04:08:56.199Z,69.66
2019-05-03T04:11:27.651Z,69.71
2019-05-03T04:13:58.819Z,69.98
2019-05-03T04:16:37.026Z,69.80
2019-05-03T04:19:17.439Z,70.00
2019-05-03T04:21:48.762Z,70.05
2019-05-03T04:24:21.153Z,69.87
2019-05-03T04:27:15.536Z,69.58
2019-05-03T04:29:38.775Z,69.69
2019-05-03T04:32:10.608Z,69.45
2019-05-03T04:34:45.221Z,69.76
2019-05-03T04:37:16.413Z,69.74
2019-05-03T04:39:47.568Z,69.68
2019-05-03T04:42:18.699Z,70.10
2019-05-03T04:44:51.270Z,69.81
2019-05-03T04:47:22.354Z,70.10
2019-05-03T04:49:55.486Z,69.88
2019-05-03T04:52:26.287Z,69.46
2019-05-03T04:54:59.108Z,69.72
2019-05-03T04:57:39.853Z,69.57
2019-05-03T05:00:06.062Z,69.47
2019-05-03T05:02:36.216Z,69.57
2019-05-03T05:05:07.818Z,69.63
2019-05-03T05:07:39.002Z,69.80
2019-05-03T05:10:10.706Z,69.81
2019-05-03T05:12:41.935Z,69.84
2019-05-03T05:15:15.550Z,69.91
2019-05-03T05:18:05.944Z,69.98
2019-05-03T05:20:43.078Z,69.65
2019-05-03T05:23:14.810Z,70.18
2019-05-03T05:25:51.957Z,69.94
2019-05-03T05:28:29.331Z,70.15
2019-05-03T05:31:00.386Z,70.39
2019-05-03T05:33:31.471Z,69.96
2019-05-03T05:36:04.730Z,69.72
2019-05-03T05:38:35.731Z,69.63
2019-05-03T05:41:06.900Z,69.64
2019-05-03T05:43:37.923Z,68.81
2019-05-03T05:46:09.004Z,67.68
2019-05-03T05:48:50.848Z,67.91
2019-05-03T05:51:21.668Z,66.89
2019-05-03T05:53:54.781Z,66.70
2019-05-03T05:56:44.650Z,66.51
2019-05-03T05:59:21.143Z,66.71
2019-05-03T06:01:57.154Z,67.50
2019-05-03T06:04:28.412Z,67.49
2019-05-03T06:07:24.826Z,66.71
2019-05-03T06:10:10.433Z,68.13
2019-05-03T06:12:46.589Z,68.17
2019-05-03T06:15:39.556Z,67.56
2019-05-03T06:18:16.553Z,67.61
2019-05-03T06:20:57.394Z,68.48
2019-05-03T06:23:34.710Z,68.13
2019-05-03T06:26:25.386Z,67.99
2019-05-03T06:28:57.465Z,67.90
2019-05-03T06:31:35.730Z,68.40
2019-05-03T06:34:06.732Z,67.89
2019-05-03T06:36:38.725Z,68.02
2019-05-03T06:39:10.085Z,67.34
2019-05-03T06:41:41.301Z,67.17
2019-05-03T06:44:14.308Z,67.31
2019-05-03T06:46:47.096Z,67.22
2019-05-03T06:49:18.228Z,67.39
2019-05-03T06:51:49.956Z,68.08
2019-05-03T06:54:26.971Z,67.49
2019-05-03T06:56:55.485Z,67.60
2019-05-03T06:59:32.081Z,68.05
2019-05-03T07:02:25.151Z,68.60
2019-05-03T07:04:57.196Z,68.57
2019-05-03T07:07:46.164Z,69.01
2019-05-03T07:10:31.966Z,67.96
2019-05-03T07:13:05.014Z,67.87
2019-05-03T07:15:36.408Z,68.73
2019-05-03T07:18:07.769Z,69.05
2019-05-03T07:20:49.928Z,68.64
2019-05-03T07:23:21.495Z,69.24
2019-05-03T07:25:52.513Z,68.74
2019-05-03T07:28:25.148Z,68.22
2019-05-03T07:30:56.216Z,68.03
2019-05-03T07:33:30.181Z,68.01
2019-05-03T07:36:01.444Z,67.65
2019-05-03T07:38:34.995Z,67.59
2019-05-03T07:41:06.272Z,67.69
2019-05-03T07:43:37.363Z,67.80
2019-05-03T07:46:08.563Z,67.38
2019-05-03T07:48:39.657Z,67.39
2019-05-03T07:51:10.875Z,68.01
2019-05-03T07:53:41.897Z,68.00
2019-05-03T07:56:15.516Z,67.30
2019-05-03T07:58:59.958Z,67.35
2019-05-03T08:01:30.845Z,67.12
2019-05-03T08:04:01.927Z,66.70
2019-05-03T08:06:34.650Z,66.95
2019-05-03T08:09:09.081Z,67.23
2019-05-03T08:11:40.189Z,67.12
2019-05-03T08:14:11.203Z,65.39
2019-05-03T08:16:42.374Z,66.72
2019-05-03T08:19:15.235Z,65.78
2019-05-03T08:21:46.461Z,65.88
2019-05-03T08:24:17.541Z,66.80
2019-05-03T08:26:48.778Z,67.97
2019-05-03T08:29:19.898Z,67.24
2019-05-03T08:32:29.367Z,66.79
2019-05-03T08:35:16.855Z,65.67
2019-05-03T08:37:56.650Z,64.11
2019-05-03T08:40:31.105Z,64.25
2019-05-03T08:43:02.247Z,64.93
2019-05-03T08:45:34.679Z,64.14
2019-05-03T08:48:06.276Z,63.21
2019-05-03T08:50:37.460Z,65.08
2019-05-03T08:53:08.484Z,60.92
2019-05-03T08:55:39.739Z,60.90
2019-05-03T08:58:10.791Z,61.05
2019-05-03T09:00:45.459Z,62.98
2019-05-03T09:03:17.690Z,64.24
2019-05-03T09:05:48.820Z,63.31
2019-05-03T09:08:19.855Z,64.40
2019-05-03T09:11:05.904Z,64.67
2019-05-03T09:13:57.517Z,62.17
2019-05-03T09:16:28.790Z,63.10
2019-05-03T09:18:59.878Z,63.33
2019-05-03T09:21:30.952Z,63.69
2019-05-03T09:24:02.028Z,62.94
2019-05-03T09:26:34.813Z,63.54
2019-05-03T09:29:06.097Z,60.96
2019-05-03T09:31:37.477Z,59.55
2019-05-03T09:34:08.491Z,59.90
2019-05-03T09:36:39.818Z,58.83
2019-05-03T09:39:10.831Z,58.36
2019-05-03T09:41:44.897Z,58.41
2019-05-03T09:44:16.731Z,57.02
2019-05-03T09:46:47.816Z,55.97
2019-05-03T09:49:18.899Z,58.08
2019-05-03T09:51:49.932Z,58.62
2019-05-03T09:54:27.071Z,57.82
2019-05-03T09:56:59.014Z,56.68
2019-05-03T09:59:30.990Z,56.91
2019-05-03T10:02:04.882Z,56.59
2019-05-03T10:04:36.636Z,56.17
2019-05-03T10:07:08.098Z,55.78
2019-05-03T10:09:39.253Z,55.57
2019-05-03T10:12:16.147Z,55.31
2019-05-03T10:14:47.419Z,56.32
2019-05-03T10:17:41.469Z,55.66
2019-05-03T10:20:15.347Z,56.09
2019-05-03T10:22:46.654Z,57.35
2019-05-03T10:25:17.863Z,56.95
2019-05-03T10:27:48.870Z,56.18
2019-05-03T10:30:26.697Z,54.29
2019-05-03T10:33:06.991Z,55.44
2019-05-03T10:35:38.046Z,55.45
2019-05-03T10:38:09.235Z,55.91
2019-05-03T10:40:40.348Z,56.29
2019-05-03T10:43:11.849Z,57.69
2019-05-03T10:45:44.881Z,58.34
2019-05-03T10:48:16.141Z,57.66
2019-05-03T10:50:50.756Z,55.45
2019-05-03T10:53:31.501Z,56.50
2019-05-03T10:56:24.508Z,54.40
2019-05-03T10:58:59.978Z,54.33
2019-05-03T11:01:38.720Z,54.01
2019-05-03T11:04:09.821Z,52.48
2019-05-03T11:06:40.849Z,52.87
2019-05-03T11:09:12.109Z,53.16
2019-05-03T11:11:45.167Z,53.90
2019-05-03T11:14:15.842Z,52.45
2019-05-03T11:16:46.860Z,52.17
2019-05-03T11:19:18.037Z,52.49
2019-05-03T11:21:49.042Z,52.42
2019-05-03T11:24:23.213Z,52.82
2019-05-03T11:26:55.824Z,52.30
2019-05-03T11:29:27.126Z,52.19
2019-05-03T11:32:10.356Z,53.26
2019-05-03T11:34:50.927Z,53.12
2019-05-03T11:37:50.538Z,51.96
2019-05-03T11:40:22.491Z,53.67
2019-05-03T11:42:55.418Z,53.77
2019-05-03T11:45:26.592Z,50.46
2019-05-03T11:47:57.598Z,50.02
2019-05-03T11:50:28.692Z,48.70
2019-05-03T11:52:59.728Z,48.62
2019-05-03T11:55:30.799Z,50.00
2019-05-03T11:58:05.607Z,50.74
2019-05-03T12:00:39.331Z,50.57
2019-05-03T12:03:18.179Z,50.13
2019-05-03T12:05:51.819Z,49.83
2019-05-03T12:08:22.847Z,49.70
2019-05-03T12:11:00.641Z,49.82
2019-05-03T12:13:29.823Z,50.38
2019-05-03T12:16:05.528Z,51.24
2019-05-03T12:18:49.012Z,48.38
2019-05-03T12:21:09.748Z,46.61
2019-05-03T12:23:41.350Z,46.02
2019-05-03T12:26:13.889Z,46.49
2019-05-03T12:28:45.537Z,47.23
2019-05-03T12:31:29.546Z,47.02
2019-05-03T12:33:49.431Z,46.57
2019-05-03T12:36:20.522Z,48.10
2019-05-03T12:38:54.663Z,48.16
2019-05-03T12:41:25.681Z,49.29
2019-05-03T12:43:56.688Z,48.99
2019-05-03T12:46:27.845Z,48.72
2019-05-03T12:48:58.970Z,48.17
2019-05-03T12:51:30.244Z,48.58
2019-05-03T12:54:01.337Z,49.13
2019-05-03T12:56:35.164Z,49.57
2019-05-03T12:59:10.463Z,48.98
2019-05-03T13:02:08.991Z,49.20
2019-05-03T13:04:40.196Z,48.21
2019-05-03T13:07:26.453Z,48.49
2019-05-03T13:09:57.486Z,48.41
2019-05-03T13:12:30.413Z,48.26
2019-05-03T13:15:01.510Z,48.63
2019-05-03T13:17:36.651Z,48.69
2019-05-03T13:20:11.211Z,48.46
2019-05-03T13:22:42.445Z,48.67
2019-05-03T13:25:15.491Z,47.78
2019-05-03T13:27:46.960Z,48.45
2019-05-03T13:30:18.436Z,48.17
2019-05-03T13:32:49.435Z,47.29
2019-05-03T13:35:20.506Z,47.24
2019-05-03T13:37:52.578Z,47.82
2019-05-03T13:40:25.000Z,45.69
2019-05-03T13:43:03.277Z,45.86
2019-05-03T13:45:29.419Z,46.40
2019-05-03T13:48:00.842Z,46.09
2019-05-03T13:50:32.041Z,44.86
2019-05-03T13:53:04.865Z,45.47
2019-05-03T13:55:36.774Z,48.60
2019-05-03T13:58:08.006Z,47.52
2019-05-03T14:00:39.128Z,46.28
2019-05-03T14:03:10.113Z,47.39
2019-05-03T14:05:41.341Z,46.31
2019-05-03T14:08:12.340Z,45.57
2019-05-03T14:10:45.589Z,46.44
2019-05-03T14:13:16.424Z,46.18
2019-05-03T14:15:47.569Z,47.57
2019-05-03T14:18:18.727Z,47.96
2019-05-03T14:21:11.456Z,46.62
2019-05-03T14:24:00.131Z,47.41
2019-05-03T14:26:31.242Z,48.07
2019-05-03T14:29:02.245Z,47.69
2019-05-03T14:31:34.627Z,47.96
2019-05-03T14:34:06.176Z,46.51
2019-05-03T14:36:37.356Z,47.26
2019-05-03T14:39:10.361Z,47.55
2019-05-03T14:41:41.572Z,48.85
2019-05-03T14:44:14.763Z,48.82
2019-05-03T14:46:45.952Z,49.60
2019-05-03T14:49:17.155Z,48.97
2019-05-03T14:51:48.211Z,47.48
2019-05-03T14:54:20.799Z,48.52
2019-05-03T14:57:00.069Z,46.66
2019-05-03T14:59:50.308Z,48.30
2019-05-03T15:02:40.153Z,48.31
2019-05-03T15:05:00.410Z,47.62
2019-05-03T15:07:31.429Z,49.20
2019-05-03T15:10:02.583Z,47.01
2019-05-03T15:12:35.776Z,46.64
2019-05-03T15:15:07.074Z,47.81
2019-05-03T15:17:38.331Z,47.00
2019-05-03T15:20:09.768Z,45.34
2019-05-03T15:22:40.782Z,45.93
2019-05-03T15:25:11.851Z,46.04
2019-05-03T15:27:44.830Z,43.93
2019-05-03T15:30:16.082Z,44.31
2019-05-03T15:32:56.747Z,43.66
2019-05-03T15:35:20.165Z,43.78
2019-05-03T15:37:51.220Z,44.18
2019-05-03T15:40:24.999Z,44.66
2019-05-03T15:43:06.373Z,44.82
2019-05-03T15:45:54.393Z,44.78
2019-05-03T15:48:28.335Z,45.39
2019-05-03T15:50:59.511Z,45.11
2019-05-03T15:53:30.526Z,46.18
2019-05-03T15:56:01.547Z,47.38
2019-05-03T15:58:32.646Z,45.90
2019-05-03T16:01:04.711Z,46.05
2019-05-03T16:03:35.893Z,46.38
2019-05-03T16:06:07.094Z,47.34
2019-05-03T16:08:38.195Z,46.85
2019-05-03T16:11:09.383Z,46.39
2019-05-03T16:13:40.427Z,46.45
2019-05-03T16:16:11.470Z,46.76
2019-05-03T16:18:42.476Z,47.66
2019-05-03T16:21:14.597Z,48.03
2019-05-03T16:23:46.746Z,48.24
2019-05-03T16:26:17.726Z,46.15
2019-05-03T16:28:55.273Z,46.77
2019-05-03T16:31:26.750Z,46.26
2019-05-03T16:33:57.923Z,46.26
2019-05-03T16:36:28.941Z,46.66
2019-05-03T16:38:59.952Z,46.86
2019-05-03T16:41:31.019Z,47.19
2019-05-03T16:44:02.042Z,47.61
2019-05-03T16:46:34.343Z,47.88
2019-05-03T16:49:06.686Z,47.33
2019-05-03T16:51:37.787Z,47.57
2019-05-03T16:54:08.953Z,47.09
2019-05-03T16:56:39.963Z,46.74
2019-05-03T16:59:11.081Z,47.24
2019-05-03T17:01:42.156Z,47.84
2019-05-03T17:04:34.590Z,47.49
2019-05-03T17:07:24.660Z,47.27
2019-05-03T17:10:15.633Z,48.08
2019-05-03T17:12:46.735Z,48.26
2019-05-03T17:15:17.920Z,48.20
2019-05-03T17:17:49.045Z,48.84
2019-05-03T17:20:20.166Z,49.10
2019-05-03T17:22:51.352Z,48.72
2019-05-03T17:25:24.519Z,48.46
2019-05-03T17:27:55.657Z,48.44
2019-05-03T17:30:33.883Z,48.38
2019-05-03T17:32:59.492Z,47.78
2019-05-03T17:35:30.755Z,48.08
2019-05-03T17:38:01.852Z,47.85
2019-05-03T17:40:44.158Z,47.98
2019-05-03T17:43:39.740Z,48.05
2019-05-03T17:46:11.376Z,49.20
2019-05-03T17:48:42.442Z,49.23
2019-05-03T17:51:32.535Z,48.80
2019-05-03T17:54:17.607Z,47.48
2019-05-03T17:57:05.798Z,48.37
2019-05-03T17:59:44.489Z,48.49
2019-05-03T18:02:28.080Z,48.38
2019-05-03T18:05:18.115Z,48.64
2019-05-03T18:08:06.064Z,49.23
2019-05-03T18:10:38.308Z,49.21
2019-05-03T18:13:09.481Z,49.13
2019-05-03T18:15:41.699Z,49.58
2019-05-03T18:18:15.619Z,49.73
2019-05-03T18:20:46.498Z,49.71
2019-05-03T18:23:17.528Z,49.88
2019-05-03T18:25:48.891Z,50.25
2019-05-03T18:28:19.993Z,50.91
2019-05-03T18:30:51.073Z,51.07
2019-05-03T18:33:24.700Z,51.45
2019-05-03T18:35:56.015Z,51.60
2019-05-03T18:38:27.088Z,51.16
2019-05-03T18:40:58.299Z,51.24
2019-05-03T18:43:41.039Z,51.53
2019-05-03T18:46:25.435Z,51.24
2019-05-03T18:48:56.587Z,51.64
2019-05-03T18:51:27.671Z,52.74
2019-05-03T18:53:58.754Z,52.78
2019-05-03T18:56:29.838Z,52.81
2019-05-03T18:59:00.917Z,53.08
2019-05-03T19:01:32.024Z,53.32
2019-05-03T19:04:12.192Z,53.34
2019-05-03T19:06:45.028Z,53.61
2019-05-03T19:09:34.648Z,53.68
2019-05-03T19:12:30.228Z,53.35
2019-05-03T19:15:01.418Z,53.44
2019-05-03T19:17:42.491Z,53.80
2019-05-03T19:20:16.878Z,53.79
2019-05-03T19:22:48.018Z,53.89
2019-05-03T19:25:19.273Z,54.21
2019-05-03T19:27:50.299Z,53.87
2019-05-03T19:30:21.675Z,54.29
2019-05-03T19:32:55.141Z,54.10
2019-05-03T19:35:27.843Z,54.11
2019-05-03T19:37:58.985Z,54.12
2019-05-03T19:40:30.851Z,54.11
2019-05-03T19:43:03.295Z,54.33
2019-05-03T19:45:35.457Z,54.67
2019-05-03T19:48:09.515Z,55.45
2019-05-03T19:50:39.479Z,55.70
2019-05-03T19:53:24.091Z,55.54
2019-05-03T19:55:55.379Z,56.16
2019-05-03T19:58:27.723Z,56.65
2019-05-03T20:01:24.976Z,56.94
2019-05-03T20:04:01.346Z,56.13
2019-05-03T20:06:39.741Z,56.10
2019-05-03T20:09:15.116Z,55.83
2019-05-03T20:11:46.511Z,56.36
2019-05-03T20:14:17.723Z,55.78
2019-05-03T20:16:49.009Z,55.88
2019-05-03T20:19:21.318Z,55.96
2019-05-03T20:21:54.199Z,55.79
2019-05-03T20:24:26.272Z,56.00
2019-05-03T20:26:57.291Z,56.16
2019-05-03T20:29:28.326Z,56.14
2019-05-03T20:31:59.417Z,56.20
2019-05-03T20:34:30.524Z,56.83
2019-05-03T20:37:01.586Z,56.46
2019-05-03T20:39:34.678Z,56.59
2019-05-03T20:42:05.659Z,56.50
2019-05-03T20:44:55.717Z,56.53
2019-05-03T20:47:51.777Z,56.81
2019-05-03T20:50:24.777Z,57.03
2019-05-03T20:52:56.023Z,57.09
2019-05-03T20:55:27.091Z,57.62
2019-05-03T20:57:58.094Z,58.51
2019-05-03T21:00:30.251Z,58.52
2019-05-03T21:03:01.405Z,58.65
2019-05-03T21:05:34.834Z,59.07
2019-05-03T21:08:05.667Z,58.92
2019-05-03T21:10:36.721Z,59.63
2019-05-03T21:13:08.801Z,60.13
2019-05-03T21:15:46.072Z,61.26
2019-05-03T21:18:37.060Z,60.42
2019-05-03T21:21:16.759Z,60.09
2019-05-03T21:23:51.686Z,60.84
2019-05-03T21:26:25.436Z,60.92
2019-05-03T21:28:56.679Z,61.09
2019-05-03T21:31:28.948Z,61.17
2019-05-03T21:34:00.048Z,61.32
2019-05-03T21:36:31.452Z,61.45
2019-05-03T21:39:02.503Z,61.87
2019-05-03T21:41:37.834Z,61.78
2019-05-03T21:44:09.711Z,62.05
2019-05-03T21:46:45.853Z,61.80
2019-05-03T21:49:25.319Z,61.47
2019-05-03T21:51:56.613Z,61.76
2019-05-03T21:54:27.678Z,62.19
2019-05-03T21:56:58.701Z,62.44
2019-05-03T21:59:29.708Z,62.42
2019-05-03T22:02:00.951Z,63.00
2019-05-03T22:04:32.128Z,63.26
2019-05-03T22:07:05.105Z,63.11
2019-05-03T22:09:36.511Z,63.21
2019-05-03T22:12:08.739Z,63.33
2019-05-03T22:14:45.556Z,63.64
2019-05-03T22:17:34.698Z,63.32
2019-05-03T22:20:15.502Z,63.56
2019-05-03T22:22:55.309Z,63.94
2019-05-03T22:25:28.575Z,63.36
2019-05-03T22:27:59.729Z,63.32
2019-05-03T22:30:31.594Z,63.37
2019-05-03T22:33:02.658Z,63.81
2019-05-03T22:35:35.288Z,63.34
2019-05-03T22:38:06.597Z,64.02
2019-05-03T22:40:38.188Z,64.39
2019-05-03T22:43:10.051Z,64.17
2019-05-03T22:45:41.447Z,63.80
2019-05-03T22:48:14.496Z,63.93
2019-05-03T22:50:45.170Z,63.96
2019-05-03T22:53:16.338Z,64.77
2019-05-03T22:55:47.352Z,64.53
2019-05-03T22:58:18.385Z,64.13
2019-05-03T23:00:49.387Z,64.51
2019-05-03T23:03:20.396Z,64.15
2019-05-03T23:05:51.474Z,64.10
2019-05-03T23:08:22.546Z,64.85
2019-05-03T23:10:54.709Z,64.40
2019-05-03T23:13:25.994Z,64.74
2019-05-03T23:15:57.014Z,64.68
2019-05-03T23:18:28.018Z,65.10
2019-05-03T23:21:08.349Z,65.22
2019-05-03T23:23:49.167Z,64.98
2019-05-03T23:26:20.327Z,64.74
2019-05-03T23:28:52.575Z,65.52
2019-05-03T23:31:25.626Z,65.76
2019-05-03T23:33:56.800Z,65.72
2019-05-03T23:36:33.458Z,65.63
2019-05-03T23:39:00.914Z,65.85
2019-05-03T23:41:35.086Z,66.30
2019-05-03T23:44:06.284Z,66.01
2019-05-03T23:46:47.805Z,66.20
2019-05-03T23:49:18.796Z,66.14
2019-05-03T23:51:51.842Z,66.34
2019-05-03T23:54:24.726Z,66.82
2019-05-03T23:56:55.620Z,67.03
2019-05-03T23:59:26.776Z,67.07
